createdAt,value
2018-07-16T00:00:17.407Z,13.73
2018-07-16T00:02:45.718Z,14.67
2018-07-16T00:05:14.135Z,15.07
2018-07-16T00:07:42.529Z,15.53
2018-07-16T00:10:10.900Z,15.47
2018-07-16T00:12:39.296Z,15.00
2018-07-16T00:15:07.662Z,14.40
2018-07-16T00:17:36.082Z,14.13
2018-07-16T00:20:04.797Z,14.20
2018-07-16T00:22:33.281Z,14.73
2018-07-16T00:25:01.768Z,13.73
2018-07-16T00:27:30.074Z,13.83
2018-07-16T00:29:58.434Z,13.77
2018-07-16T00:32:26.518Z,13.33
2018-07-16T00:34:54.858Z,12.37
2018-07-16T00:37:23.274Z,12.33
2018-07-16T00:39:51.616Z,11.50
2018-07-16T00:42:20.000Z,13.03
2018-07-16T00:44:48.390Z,12.67
2018-07-16T00:47:16.712Z,12.90
2018-07-16T00:49:45.042Z,11.70
2018-07-16T00:52:13.404Z,11.87
2018-07-16T00:54:41.760Z,11.17
2018-07-16T00:57:10.089Z,11.43
2018-07-16T00:59:38.472Z,11.93
2018-07-16T01:02:06.488Z,12.23
2018-07-16T01:04:34.868Z,10.87
2018-07-16T01:07:03.281Z,11.00
2018-07-16T01:09:31.627Z,10.90
2018-07-16T01:11:59.967Z,11.33
2018-07-16T01:14:28.304Z,10.70
2018-07-16T01:16:56.626Z,11.07
2018-07-16T01:19:24.996Z,10.90
2018-07-16T01:21:53.014Z,11.30
2018-07-16T01:24:21.702Z,10.87
2018-07-16T01:26:50.075Z,10.93
2018-07-16T01:29:18.426Z,11.27
2018-07-16T01:31:46.783Z,10.83
2018-07-16T01:34:15.164Z,10.60
2018-07-16T01:36:43.508Z,10.93
2018-07-16T01:39:11.860Z,11.87
2018-07-16T01:41:40.231Z,11.30
2018-07-16T01:44:08.651Z,11.23
2018-07-16T01:46:37.036Z,11.47
2018-07-16T01:49:05.418Z,12.13
2018-07-16T01:51:33.739Z,11.60
2018-07-16T01:54:02.123Z,11.93
2018-07-16T01:56:30.466Z,12.07
2018-07-16T01:58:58.856Z,12.27
2018-07-16T02:01:27.231Z,13.47
2018-07-16T02:03:55.692Z,13.20
2018-07-16T02:06:24.036Z,12.47
2018-07-16T02:08:52.343Z,12.80
2018-07-16T02:11:20.884Z,12.73
2018-07-16T02:13:49.241Z,11.17
2018-07-16T02:16:17.782Z,10.37
2018-07-16T02:18:46.105Z,11.47
2018-07-16T02:21:14.430Z,11.10
2018-07-16T02:23:42.735Z,12.57
2018-07-16T02:26:11.089Z,13.17
2018-07-16T02:28:39.422Z,12.60
2018-07-16T02:31:07.857Z,12.00
2018-07-16T02:33:35.924Z,12.87
2018-07-16T02:36:04.328Z,12.57
2018-07-16T02:38:32.637Z,12.37
2018-07-16T02:41:01.000Z,11.93
2018-07-16T02:43:29.330Z,12.13
2018-07-16T02:45:57.712Z,11.90
2018-07-16T02:48:26.135Z,10.70
2018-07-16T02:50:54.485Z,9.77
2018-07-16T02:53:22.847Z,10.63
2018-07-16T02:55:51.195Z,11.13
2018-07-16T02:58:19.514Z,11.93
2018-07-16T03:00:47.927Z,10.23
2018-07-16T03:03:16.198Z,10.33
2018-07-16T03:05:44.630Z,10.53
2018-07-16T03:08:12.964Z,10.83
2018-07-16T03:10:41.329Z,10.93
2018-07-16T03:13:09.816Z,10.87
2018-07-16T03:15:38.146Z,10.97
2018-07-16T03:18:06.565Z,10.60
2018-07-16T03:20:34.873Z,10.47
2018-07-16T03:23:03.258Z,10.97
2018-07-16T03:25:31.599Z,10.10
2018-07-16T03:27:59.917Z,10.30
2018-07-16T03:30:28.236Z,11.33
2018-07-16T03:32:56.586Z,11.23
2018-07-16T03:35:24.936Z,11.17
2018-07-16T03:37:53.267Z,10.90
2018-07-16T03:40:21.645Z,11.60
2018-07-16T03:42:49.989Z,10.50
2018-07-16T03:45:18.034Z,11.47
2018-07-16T03:47:46.421Z,11.07
2018-07-16T03:50:14.763Z,9.93
2018-07-16T03:52:43.079Z,9.90
2018-07-16T03:55:11.514Z,10.67
2018-07-16T03:57:39.897Z,9.20
2018-07-16T04:00:08.340Z,10.03
2018-07-16T04:02:36.750Z,9.03
2018-07-16T04:05:05.139Z,9.40
2018-07-16T04:07:33.513Z,10.17
2018-07-16T04:10:01.982Z,10.07
2018-07-16T04:12:30.342Z,10.20
2018-07-16T04:14:58.692Z,9.57
2018-07-16T04:17:27.078Z,9.90
2018-07-16T04:19:55.422Z,10.43
2018-07-16T04:22:23.802Z,10.30
2018-07-16T04:24:52.150Z,11.00
2018-07-16T04:27:20.525Z,9.47
2018-07-16T04:29:48.997Z,9.70
2018-07-16T04:32:17.342Z,10.77
2018-07-16T04:34:45.694Z,11.20
2018-07-16T04:37:14.103Z,11.70
2018-07-16T04:39:42.493Z,11.37
2018-07-16T04:42:10.924Z,12.20
2018-07-16T04:44:39.338Z,11.80
2018-07-16T04:47:07.745Z,11.73
2018-07-16T04:49:36.231Z,12.83
2018-07-16T04:52:04.624Z,11.50
2018-07-16T04:54:33.037Z,12.00
2018-07-16T04:57:01.473Z,11.37
2018-07-16T04:59:29.808Z,12.23
2018-07-16T05:01:58.219Z,11.87
2018-07-16T05:04:26.750Z,12.10
2018-07-16T05:06:55.102Z,11.47
2018-07-16T05:09:23.429Z,11.17
2018-07-16T05:11:52.168Z,11.90
2018-07-16T05:14:20.844Z,11.80
2018-07-16T05:16:49.209Z,13.17
2018-07-16T05:19:17.559Z,12.53
2018-07-16T05:21:46.200Z,11.13
2018-07-16T05:24:14.621Z,11.40
2018-07-16T05:26:42.947Z,10.57
2018-07-16T05:29:11.307Z,10.50
2018-07-16T05:31:39.730Z,11.03
2018-07-16T05:34:08.049Z,9.50
2018-07-16T05:36:36.596Z,10.50
2018-07-16T05:39:05.674Z,10.60
2018-07-16T05:41:34.020Z,27.40
2018-07-16T05:44:02.415Z,10.13
2018-07-16T05:46:30.783Z,10.17
2018-07-16T05:48:59.252Z,10.07
2018-07-16T05:51:27.628Z,10.17
2018-07-16T05:53:56.024Z,9.33
2018-07-16T05:56:24.365Z,9.40
2018-07-16T05:58:52.740Z,9.07
2018-07-16T06:01:20.922Z,9.43
2018-07-16T06:03:49.293Z,9.37
2018-07-16T06:06:17.638Z,8.80
2018-07-16T06:08:46.043Z,9.20
2018-07-16T06:11:14.405Z,8.00
2018-07-16T06:13:42.750Z,8.73
2018-07-16T06:16:11.100Z,9.07
2018-07-16T06:18:39.531Z,8.58
2018-07-16T06:21:07.943Z,9.00
2018-07-16T06:23:36.370Z,9.00
2018-07-16T06:26:04.706Z,8.00
2018-07-16T06:28:33.069Z,8.45
2018-07-16T06:31:01.501Z,7.97
2018-07-16T06:33:29.986Z,8.33
2018-07-16T06:37:28.007Z,8.00
2018-07-16T06:39:56.204Z,9.00
2018-07-16T06:42:24.575Z,8.03
2018-07-16T06:44:52.917Z,8.25
2018-07-16T06:47:21.297Z,6.80
2018-07-16T06:49:49.663Z,7.40
2018-07-16T06:52:18.092Z,8.17
2018-07-16T06:54:46.721Z,7.05
2018-07-16T06:57:15.105Z,7.12
2018-07-16T06:59:43.459Z,11.17
2018-07-16T07:02:12.167Z,7.80
2018-07-16T07:04:40.679Z,7.75
2018-07-16T07:07:08.990Z,7.80
2018-07-16T07:09:37.379Z,8.58
2018-07-16T07:12:05.696Z,8.15
2018-07-16T07:14:34.103Z,7.70
2018-07-16T07:17:02.411Z,8.13
2018-07-16T07:19:30.706Z,7.42
2018-07-16T07:21:59.001Z,8.90
2018-07-16T07:24:27.361Z,8.10
2018-07-16T07:26:55.687Z,6.33
2018-07-16T07:29:24.018Z,7.17
2018-07-16T07:31:52.331Z,39.05
2018-07-16T07:34:20.671Z,7.55
2018-07-16T07:36:48.995Z,7.00
2018-07-16T07:39:17.393Z,6.50
2018-07-16T07:41:45.722Z,6.33
2018-07-16T07:44:14.079Z,6.80
2018-07-16T07:46:42.386Z,6.87
2018-07-16T07:49:10.665Z,6.30
2018-07-16T07:51:39.009Z,5.95
2018-07-16T07:54:07.602Z,5.90
2018-07-16T07:56:35.833Z,6.55
2018-07-16T07:59:04.212Z,5.37
2018-07-16T08:01:32.535Z,4.92
2018-07-16T08:04:00.980Z,4.87
2018-07-16T08:06:29.443Z,3.87
2018-07-16T08:08:57.820Z,4.08
2018-07-16T08:11:26.162Z,8.18
2018-07-16T08:13:54.602Z,3.87
2018-07-16T08:16:22.800Z,5.75
2018-07-16T08:18:51.165Z,5.70
2018-07-16T08:21:19.506Z,5.08
2018-07-16T08:23:47.862Z,4.45
2018-07-16T08:26:16.192Z,6.25
2018-07-16T08:28:44.511Z,5.22
2018-07-16T08:31:12.784Z,4.47
2018-07-16T08:33:41.113Z,4.97
2018-07-16T08:36:09.411Z,4.40
2018-07-16T08:38:37.750Z,5.22
2018-07-16T08:41:06.524Z,4.67
2018-07-16T08:43:34.833Z,4.60
2018-07-16T08:46:03.145Z,5.00
2018-07-16T08:48:31.430Z,5.15
2018-07-16T08:50:59.716Z,4.87
2018-07-16T08:53:28.008Z,4.22
2018-07-16T08:55:56.354Z,12.10
2018-07-16T08:58:24.648Z,5.28
2018-07-16T09:00:52.946Z,5.22
2018-07-16T09:03:21.232Z,4.50
2018-07-16T09:05:54.925Z,4.90
2018-07-16T09:08:23.201Z,4.20
2018-07-16T09:10:51.573Z,4.33
2018-07-16T09:13:19.835Z,5.10
2018-07-16T09:15:48.077Z,4.20
2018-07-16T09:18:16.366Z,5.20
2018-07-16T09:20:44.662Z,4.08
2018-07-16T09:23:12.934Z,3.87
2018-07-16T09:25:41.238Z,3.67
2018-07-16T09:28:09.499Z,4.33
2018-07-16T09:30:37.798Z,4.65
2018-07-16T09:33:06.103Z,4.08
2018-07-16T09:35:34.447Z,4.05
2018-07-16T09:38:02.709Z,4.10
2018-07-16T09:40:31.040Z,4.10
2018-07-16T09:42:59.309Z,4.37
2018-07-16T09:45:27.609Z,3.90
2018-07-16T09:47:55.898Z,4.58
2018-07-16T09:50:24.181Z,4.67
2018-07-16T09:52:52.461Z,4.37
2018-07-16T09:55:20.760Z,5.37
2018-07-16T09:57:49.029Z,5.58
2018-07-16T10:00:22.418Z,5.25
2018-07-16T10:02:50.759Z,5.28
2018-07-16T10:05:19.080Z,5.60
2018-07-16T10:07:47.359Z,5.10
2018-07-16T10:10:15.676Z,5.65
2018-07-16T10:12:43.949Z,5.15
2018-07-16T10:15:12.408Z,5.28
2018-07-16T10:17:40.806Z,5.87
2018-07-16T10:20:09.215Z,5.40
2018-07-16T10:22:37.535Z,5.55
2018-07-16T10:25:06.021Z,5.90
2018-07-16T10:27:34.387Z,5.90
2018-07-16T10:30:02.755Z,5.85
2018-07-16T10:32:30.811Z,6.22
2018-07-16T10:34:59.127Z,5.87
2018-07-16T10:37:27.516Z,5.50
2018-07-16T10:39:56.008Z,6.03
2018-07-16T10:42:24.471Z,6.00
2018-07-16T10:44:52.801Z,5.60
2018-07-16T10:47:21.161Z,5.67
2018-07-16T10:49:49.567Z,5.90
2018-07-16T10:52:17.762Z,5.30
2018-07-16T10:54:46.342Z,5.85
2018-07-16T10:57:15.044Z,5.60
2018-07-16T10:59:43.421Z,4.80
2018-07-16T11:02:11.802Z,4.75
2018-07-16T11:04:40.128Z,4.08
2018-07-16T11:07:08.448Z,4.62
2018-07-16T11:09:36.726Z,4.10
2018-07-16T11:12:05.016Z,4.53
2018-07-16T11:14:39.742Z,4.15
2018-07-16T11:17:08.372Z,3.80
2018-07-16T11:19:36.640Z,4.10
2018-07-16T11:22:04.965Z,4.90
2018-07-16T11:24:33.260Z,4.45
2018-07-16T11:27:01.544Z,3.33
2018-07-16T11:29:29.820Z,4.05
2018-07-16T11:31:58.115Z,3.85
2018-07-16T11:34:26.426Z,4.17
2018-07-16T11:36:54.720Z,4.30
2018-07-16T11:39:23.017Z,4.15
2018-07-16T11:41:51.311Z,4.42
2018-07-16T11:44:19.608Z,3.98
2018-07-16T11:46:47.898Z,4.15
2018-07-16T11:49:16.425Z,3.95
2018-07-16T11:51:44.711Z,4.00
2018-07-16T11:54:13.025Z,5.90
2018-07-16T11:56:41.319Z,10.18
2018-07-16T11:59:09.600Z,4.25
2018-07-16T12:01:37.890Z,4.55
2018-07-16T12:04:06.267Z,4.92
2018-07-16T12:06:34.581Z,4.90
2018-07-16T12:09:03.032Z,4.70
2018-07-16T12:11:31.279Z,4.05
2018-07-16T12:13:59.593Z,4.83
2018-07-16T12:16:27.871Z,5.40
2018-07-16T12:18:56.209Z,4.65
2018-07-16T12:21:24.672Z,4.33
2018-07-16T12:23:52.954Z,4.70
2018-07-16T12:26:27.724Z,4.70
2018-07-16T12:28:56.032Z,4.60
2018-07-16T12:31:24.297Z,4.90
2018-07-16T12:33:52.556Z,4.85
2018-07-16T12:36:20.902Z,5.37
2018-07-16T12:38:49.183Z,4.65
2018-07-16T12:41:17.541Z,4.65
2018-07-16T12:43:45.753Z,4.90
2018-07-16T12:46:14.062Z,4.42
2018-07-16T12:48:42.368Z,4.28
2018-07-16T12:51:10.769Z,4.35
2018-07-16T12:53:39.047Z,4.70
2018-07-16T12:56:07.375Z,5.37
2018-07-16T12:58:35.718Z,4.60
2018-07-16T13:01:04.094Z,4.72
2018-07-16T13:03:32.364Z,4.97
2018-07-16T13:06:00.695Z,5.50
2018-07-16T13:08:28.963Z,4.97
2018-07-16T13:10:57.252Z,4.70
2018-07-16T13:13:25.612Z,5.37
2018-07-16T13:15:53.945Z,5.55
2018-07-16T13:18:22.255Z,5.60
2018-07-16T13:20:50.598Z,5.62
2018-07-16T13:23:18.989Z,5.47
2018-07-16T13:25:47.335Z,5.00
2018-07-16T13:28:15.660Z,5.25
2018-07-16T13:30:44.020Z,5.62
2018-07-16T13:33:12.438Z,5.00
2018-07-16T13:35:40.737Z,5.40
2018-07-16T13:38:09.087Z,5.17
2018-07-16T13:40:37.377Z,5.00
2018-07-16T13:43:05.939Z,5.53
2018-07-16T13:45:34.208Z,5.72
2018-07-16T13:48:02.551Z,5.65
2018-07-16T13:50:31.019Z,5.25
2018-07-16T13:52:59.319Z,5.15
2018-07-16T13:55:27.650Z,5.45
2018-07-16T13:57:55.921Z,6.15
2018-07-16T14:00:24.205Z,5.50
2018-07-16T14:02:52.240Z,6.20
2018-07-16T14:05:20.544Z,5.90
2018-07-16T14:07:48.843Z,6.45
2018-07-16T14:13:48.548Z,7.90
2018-07-16T14:16:16.817Z,8.53
2018-07-16T14:18:45.120Z,17.92
2018-07-16T14:21:13.402Z,10.15
2018-07-16T14:23:41.717Z,9.48
2018-07-16T14:26:09.987Z,9.38
2018-07-16T14:28:38.297Z,9.17
2018-07-16T14:31:06.592Z,10.07
2018-07-16T14:33:34.646Z,8.33
2018-07-16T14:36:02.937Z,9.60
2018-07-16T14:38:31.231Z,8.47
2018-07-16T14:40:59.525Z,8.57
2018-07-16T14:43:27.859Z,8.83
2018-07-16T14:45:56.186Z,8.60
2018-07-16T14:48:24.468Z,10.40
2018-07-16T14:50:52.801Z,10.30
2018-07-16T14:53:21.090Z,9.50
2018-07-16T14:55:49.453Z,8.33
2018-07-16T14:58:17.798Z,7.00
2018-07-16T15:00:46.301Z,6.73
2018-07-16T15:03:14.661Z,6.53
2018-07-16T15:05:43.004Z,7.30
2018-07-16T15:08:11.394Z,7.10
2018-07-16T15:10:39.724Z,6.33
2018-07-16T15:13:08.118Z,6.97
2018-07-16T15:15:36.425Z,7.40
2018-07-16T15:18:05.242Z,6.63
2018-07-16T15:20:33.738Z,6.37
2018-07-16T15:23:03.240Z,6.55
2018-07-16T15:25:31.591Z,6.33
2018-07-16T15:28:00.033Z,6.27
2018-07-16T15:30:28.372Z,6.35
2018-07-16T15:32:56.854Z,7.00
2018-07-16T15:35:25.157Z,5.53
2018-07-16T15:37:53.772Z,10.27
2018-07-16T15:40:22.178Z,11.60
2018-07-16T15:42:50.366Z,8.43
2018-07-16T15:45:18.772Z,7.17
2018-07-16T15:47:47.065Z,6.97
2018-07-16T15:50:15.344Z,6.85
2018-07-16T15:52:43.672Z,6.57
2018-07-16T15:55:11.979Z,6.55
2018-07-16T15:57:40.275Z,7.15
2018-07-16T16:00:08.604Z,7.03
2018-07-16T16:02:37.084Z,7.12
2018-07-16T16:05:05.515Z,6.83
2018-07-16T16:07:33.807Z,6.55
2018-07-16T16:10:03.366Z,6.05
2018-07-16T16:12:31.645Z,6.37
2018-07-16T16:15:00.020Z,6.65
2018-07-16T16:17:28.348Z,6.47
2018-07-16T16:19:56.706Z,6.37
2018-07-16T16:22:24.968Z,7.15
2018-07-16T16:24:53.254Z,7.30
2018-07-16T16:27:21.518Z,6.92
2018-07-16T16:29:49.847Z,6.85
2018-07-16T16:32:18.135Z,7.22
2018-07-16T16:34:46.643Z,6.72
2018-07-16T16:37:14.980Z,7.08
2018-07-16T16:39:43.395Z,6.78
2018-07-16T16:42:11.815Z,7.22
2018-07-16T16:44:40.080Z,6.37
2018-07-16T16:47:09.296Z,7.22
2018-07-16T16:49:37.648Z,7.55
2018-07-16T16:52:06.149Z,7.03
2018-07-16T16:54:34.510Z,6.65
2018-07-16T16:57:02.845Z,6.75
2018-07-16T16:59:31.354Z,6.17
2018-07-16T17:01:59.840Z,6.70
2018-07-16T17:04:28.174Z,6.28
2018-07-16T17:06:56.485Z,6.22
2018-07-16T17:09:24.856Z,6.50
2018-07-16T17:11:53.305Z,11.75
2018-07-16T17:14:21.704Z,16.70
2018-07-16T17:16:50.182Z,11.08
2018-07-16T17:19:18.609Z,5.75
2018-07-16T17:21:46.968Z,5.12
2018-07-16T17:24:15.292Z,5.30
2018-07-16T17:26:43.668Z,5.25
2018-07-16T17:29:11.996Z,5.55
2018-07-16T17:31:40.391Z,4.83
2018-07-16T17:34:08.744Z,5.22
2018-07-16T17:36:37.129Z,5.12
2018-07-16T17:39:07.475Z,5.75
2018-07-16T17:41:35.827Z,5.90
2018-07-16T17:44:04.189Z,6.75
2018-07-16T17:46:32.683Z,6.10
2018-07-16T17:49:01.032Z,8.25
2018-07-16T17:51:29.783Z,6.72
2018-07-16T17:53:58.292Z,7.80
2018-07-16T17:56:26.783Z,8.38
2018-07-16T17:58:55.320Z,17.25
2018-07-16T18:01:23.857Z,19.30
2018-07-16T18:03:52.221Z,12.28
2018-07-16T18:06:20.706Z,10.80
2018-07-16T18:08:49.231Z,8.93
2018-07-16T18:11:17.627Z,8.40
2018-07-16T18:13:45.978Z,6.60
2018-07-16T18:16:14.341Z,7.03
2018-07-16T18:18:43.197Z,6.53
2018-07-16T18:21:11.602Z,7.17
2018-07-16T18:23:39.937Z,7.03
2018-07-16T18:26:08.359Z,6.93
2018-07-16T18:28:36.762Z,7.17
2018-07-16T18:31:05.162Z,7.17
2018-07-16T18:33:33.560Z,7.10
2018-07-16T18:36:02.036Z,7.10
2018-07-16T18:38:30.464Z,7.90
2018-07-16T18:40:58.938Z,7.80
2018-07-16T18:43:27.351Z,9.90
2018-07-16T18:45:55.783Z,10.33
2018-07-16T18:48:24.231Z,8.50
2018-07-16T18:50:52.637Z,9.00
2018-07-16T18:53:21.350Z,8.33
2018-07-16T18:55:49.877Z,7.77
2018-07-16T18:58:18.251Z,7.77
2018-07-16T19:00:46.678Z,7.63
2018-07-16T19:03:15.099Z,6.73
2018-07-16T19:05:43.576Z,7.27
2018-07-16T19:08:11.970Z,7.40
2018-07-16T19:10:40.473Z,7.80
2018-07-16T19:13:08.887Z,7.77
2018-07-16T19:15:37.442Z,6.53
2018-07-16T19:18:06.147Z,8.00
2018-07-16T19:20:34.682Z,7.80
2018-07-16T19:23:03.127Z,7.83
2018-07-16T19:25:31.576Z,8.60
2018-07-16T19:27:59.983Z,8.63
2018-07-16T19:30:28.429Z,7.43
2018-07-16T19:32:56.985Z,8.37
2018-07-16T19:35:25.371Z,7.90
2018-07-16T19:37:54.240Z,8.30
2018-07-16T19:40:22.709Z,8.03
2018-07-16T19:42:51.163Z,8.17
2018-07-16T19:45:19.654Z,8.20
2018-07-16T19:47:48.077Z,8.33
2018-07-16T19:50:16.599Z,9.03
2018-07-16T19:52:45.079Z,8.33
2018-07-16T19:55:13.663Z,9.10
2018-07-16T19:57:42.161Z,8.47
2018-07-16T20:00:10.511Z,9.63
2018-07-16T20:02:38.890Z,8.80
2018-07-16T20:05:07.373Z,7.60
2018-07-16T20:07:35.776Z,7.50
2018-07-16T20:10:04.325Z,7.60
2018-07-16T20:12:35.145Z,8.20
2018-07-16T20:15:04.214Z,8.10
2018-07-16T20:17:32.525Z,9.53
2018-07-16T20:20:01.213Z,9.37
2018-07-16T20:22:30.312Z,8.30
2018-07-16T20:24:59.322Z,8.57
2018-07-16T20:27:28.048Z,7.27
2018-07-16T20:29:56.380Z,8.37
2018-07-16T20:32:24.773Z,8.63
2018-07-16T20:34:53.240Z,8.77
2018-07-16T20:37:21.635Z,8.33
2018-07-16T20:39:50.112Z,8.57
2018-07-16T20:42:18.495Z,8.67
2018-07-16T20:44:46.974Z,8.10
2018-07-16T20:47:15.360Z,8.00
2018-07-16T20:49:43.717Z,7.40
2018-07-16T20:52:18.736Z,8.10
2018-07-16T20:54:47.129Z,9.00
2018-07-16T20:57:15.533Z,8.13
2018-07-16T20:59:43.916Z,8.20
2018-07-16T21:02:12.357Z,8.30
2018-07-16T21:04:40.762Z,9.30
2018-07-16T21:07:09.200Z,9.20
2018-07-16T21:09:37.605Z,8.70
2018-07-16T21:12:06.171Z,9.07
2018-07-16T21:14:34.693Z,9.00
2018-07-16T21:17:03.194Z,8.40
2018-07-16T21:19:31.520Z,9.50
2018-07-16T21:22:00.188Z,8.90
2018-07-16T21:24:28.562Z,7.93
2018-07-16T21:26:56.935Z,8.83
2018-07-16T21:29:25.331Z,8.83
2018-07-16T21:31:53.753Z,8.43
2018-07-16T21:34:22.115Z,8.27
2018-07-16T21:36:50.536Z,7.77
2018-07-16T21:39:18.945Z,8.33
2018-07-16T21:41:47.403Z,8.33
2018-07-16T21:44:15.796Z,9.20
2018-07-16T21:46:44.306Z,9.00
2018-07-16T21:49:12.709Z,9.20
2018-07-16T21:51:41.142Z,9.17
2018-07-16T21:54:09.535Z,8.90
2018-07-16T21:56:38.832Z,9.13
2018-07-16T21:59:07.257Z,8.70
2018-07-16T22:01:35.686Z,8.03
2018-07-16T22:04:04.109Z,8.10
2018-07-16T22:06:32.541Z,8.00
2018-07-16T22:09:01.198Z,7.47
2018-07-16T22:11:29.595Z,8.53
2018-07-16T22:13:57.963Z,8.50
2018-07-16T22:16:26.384Z,8.43
2018-07-16T22:18:54.827Z,8.87
2018-07-16T22:21:23.242Z,8.93
2018-07-16T22:23:51.290Z,7.47
2018-07-16T22:26:19.811Z,7.53
2018-07-16T22:28:48.191Z,8.70
2018-07-16T22:31:16.666Z,10.00
2018-07-16T22:33:45.117Z,11.00
2018-07-16T22:36:13.706Z,10.30
2018-07-16T22:38:42.122Z,10.27
2018-07-16T22:41:10.512Z,9.87
2018-07-16T22:43:38.907Z,8.87
2018-07-16T22:46:07.414Z,8.33
2018-07-16T22:48:35.769Z,8.73
2018-07-16T22:51:04.371Z,7.80
2018-07-16T22:53:32.751Z,9.60
2018-07-16T22:56:01.141Z,9.67
2018-07-16T22:58:29.500Z,8.80
2018-07-16T23:00:57.857Z,9.80
2018-07-16T23:03:26.229Z,9.60
2018-07-16T23:05:54.611Z,7.00
2018-07-16T23:08:22.772Z,6.10
2018-07-16T23:10:51.141Z,6.63
2018-07-16T23:13:19.600Z,6.77
2018-07-16T23:15:47.973Z,7.20
2018-07-16T23:18:16.366Z,6.77
2018-07-16T23:20:44.705Z,7.67
2018-07-16T23:23:13.191Z,7.90
2018-07-16T23:25:41.600Z,8.07
2018-07-16T23:28:10.015Z,7.83
2018-07-16T23:30:38.422Z,8.63
2018-07-16T23:33:06.889Z,8.57
2018-07-16T23:35:35.288Z,8.47
2018-07-16T23:38:03.748Z,9.07
2018-07-16T23:40:32.188Z,8.17
2018-07-16T23:43:00.529Z,8.50
2018-07-16T23:45:29.113Z,8.90
2018-07-16T23:47:57.517Z,9.23
2018-07-16T23:50:25.908Z,9.13
2018-07-16T23:52:54.320Z,9.90
2018-07-16T23:55:22.703Z,10.60
2018-07-16T23:57:51.124Z,10.00
